createdAt,value
2022-10-06T00:01:14.066Z,10.88
2022-10-06T00:03:41.709Z,4.63
2022-10-06T00:06:11.060Z,6.45
2022-10-06T00:08:40.038Z,7.15
2022-10-06T00:11:12.236Z,7.60
2022-10-06T00:13:40.396Z,6.70
2022-10-06T00:16:13.123Z,6.03
2022-10-06T00:18:40.499Z,14.73
2022-10-06T00:21:07.806Z,2.97
2022-10-06T00:23:35.189Z,7.00
2022-10-06T00:26:02.556Z,4.53
2022-10-06T00:28:29.899Z,6.88
2022-10-06T00:31:01.963Z,9.05
2022-10-06T00:33:29.153Z,7.00
2022-10-06T00:35:58.355Z,7.65
2022-10-06T00:38:27.521Z,11.60
2022-10-06T00:40:56.253Z,8.55
2022-10-06T00:43:51.523Z,11.20
2022-10-06T00:46:26.333Z,9.98
2022-10-06T00:49:00.949Z,5.22
2022-10-06T00:51:31.091Z,6.57
2022-10-06T00:53:58.929Z,8.52
2022-10-06T00:56:27.638Z,8.68
2022-10-06T00:58:54.890Z,4.05
2022-10-06T01:01:22.173Z,5.63
2022-10-06T01:03:55.313Z,8.15
2022-10-06T01:06:22.385Z,6.10
2022-10-06T01:08:50.552Z,11.23
2022-10-06T01:11:17.785Z,6.80
2022-10-06T01:13:47.799Z,6.05
2022-10-06T01:16:25.491Z,3.60
2022-10-06T01:18:56.000Z,6.45
2022-10-06T01:21:35.037Z,5.15
2022-10-06T01:24:03.950Z,6.68
2022-10-06T01:26:34.514Z,5.80
2022-10-06T01:29:01.935Z,6.38
2022-10-06T01:31:29.758Z,8.80
2022-10-06T01:33:57.061Z,4.90
2022-10-06T01:36:24.437Z,11.75
2022-10-06T01:38:52.184Z,4.97
2022-10-06T01:41:19.859Z,13.68
2022-10-06T01:43:47.346Z,5.63
2022-10-06T01:46:15.547Z,2.97
2022-10-06T01:48:44.248Z,7.28
2022-10-06T01:51:16.982Z,6.53
2022-10-06T01:53:44.316Z,7.13
2022-10-06T01:56:11.747Z,7.53
2022-10-06T01:58:39.296Z,5.65
2022-10-06T02:01:09.194Z,6.60
2022-10-06T02:03:38.557Z,3.58
2022-10-06T02:06:09.411Z,3.30
2022-10-06T02:08:36.708Z,4.20
2022-10-06T02:11:10.651Z,3.00
2022-10-06T02:13:44.917Z,9.20
2022-10-06T02:16:14.429Z,4.97
2022-10-06T02:18:43.198Z,4.03
2022-10-06T02:21:21.386Z,4.40
2022-10-06T02:23:52.172Z,8.80
2022-10-06T02:26:19.472Z,5.82
2022-10-06T02:28:50.942Z,10.00
2022-10-06T02:31:24.462Z,8.15
2022-10-06T02:33:52.454Z,7.40
2022-10-06T02:36:20.195Z,3.05
2022-10-06T02:38:47.249Z,8.88
2022-10-06T02:41:14.670Z,3.47
2022-10-06T02:43:41.786Z,6.32
2022-10-06T02:46:14.721Z,4.78
2022-10-06T02:48:47.604Z,5.00
2022-10-06T02:51:18.569Z,3.03
2022-10-06T02:53:48.407Z,4.28
2022-10-06T02:56:25.987Z,3.58
2022-10-06T02:58:54.246Z,5.82
2022-10-06T03:04:02.369Z,13.65
2022-10-06T03:06:32.741Z,4.88
2022-10-06T03:09:16.573Z,4.85
2022-10-06T03:11:51.148Z,8.80
2022-10-06T03:14:32.169Z,7.32
2022-10-06T03:16:59.859Z,9.45
2022-10-06T03:19:33.436Z,6.70
2022-10-06T03:22:01.391Z,5.60
2022-10-06T03:24:37.835Z,4.97
2022-10-06T03:27:05.395Z,5.55
2022-10-06T03:29:34.327Z,4.80
2022-10-06T03:32:05.439Z,4.80
2022-10-06T03:34:34.331Z,5.32
2022-10-06T03:37:06.074Z,10.35
2022-10-06T03:39:34.484Z,11.75
2022-10-06T03:42:02.320Z,7.53
2022-10-06T03:44:36.230Z,9.73
2022-10-06T03:47:04.243Z,11.98
2022-10-06T03:49:33.555Z,6.32
2022-10-06T03:52:00.816Z,7.88
2022-10-06T03:54:34.740Z,7.13
2022-10-06T03:57:04.798Z,7.72
2022-10-06T03:59:34.639Z,4.80
2022-10-06T04:02:06.310Z,3.72
2022-10-06T04:07:09.883Z,4.60
2022-10-06T04:09:37.757Z,3.35
2022-10-06T04:12:21.356Z,6.38
2022-10-06T04:14:54.398Z,8.18
2022-10-06T04:17:25.200Z,6.43
2022-10-06T04:19:52.810Z,3.25
2022-10-06T04:22:20.621Z,9.60
2022-10-06T04:24:50.149Z,5.60
2022-10-06T04:27:29.517Z,9.75
2022-10-06T04:30:07.129Z,6.18
2022-10-06T04:32:41.031Z,4.45
2022-10-06T04:35:08.812Z,6.00
2022-10-06T04:37:45.350Z,6.60
2022-10-06T04:40:14.128Z,5.20
2022-10-06T04:42:41.708Z,6.53
2022-10-06T04:45:17.062Z,7.57
2022-10-06T04:47:48.435Z,7.78
2022-10-06T04:50:16.260Z,6.05
2022-10-06T04:53:06.628Z,7.03
2022-10-06T04:55:36.879Z,7.32
2022-10-06T04:58:04.784Z,8.55
2022-10-06T05:00:32.168Z,4.75
2022-10-06T05:03:01.933Z,4.68
2022-10-06T05:05:32.761Z,7.95
2022-10-06T05:08:02.784Z,7.40
2022-10-06T05:10:33.830Z,9.13
2022-10-06T05:13:07.969Z,4.55
2022-10-06T05:15:40.160Z,9.65
2022-10-06T05:18:07.452Z,8.35
2022-10-06T05:20:34.920Z,9.65
2022-10-06T05:23:10.270Z,6.10
2022-10-06T05:25:40.817Z,4.93
2022-10-06T05:28:09.110Z,6.65
2022-10-06T05:30:39.992Z,7.07
2022-10-06T05:33:08.032Z,10.00
2022-10-06T05:35:38.337Z,4.35
2022-10-06T05:38:12.053Z,10.45
2022-10-06T05:40:43.379Z,5.28
2022-10-06T05:43:11.001Z,7.93
2022-10-06T05:45:40.955Z,15.50
2022-10-06T05:48:10.415Z,6.25
2022-10-06T05:50:40.556Z,14.70
2022-10-06T05:53:08.020Z,6.88
2022-10-06T05:55:44.563Z,25.80
2022-10-06T05:58:21.046Z,7.30
2022-10-06T06:00:49.333Z,10.52
2022-10-06T06:03:17.110Z,5.05
2022-10-06T06:05:44.487Z,12.05
2022-10-06T06:08:22.499Z,5.63
2022-10-06T06:10:50.636Z,9.15
2022-10-06T06:13:29.200Z,5.07
2022-10-06T06:16:12.724Z,9.40
2022-10-06T06:18:46.944Z,6.90
2022-10-06T06:21:18.889Z,19.40
2022-10-06T06:23:50.656Z,11.52
2022-10-06T06:26:23.877Z,10.10
2022-10-06T06:31:29.747Z,11.07
2022-10-06T06:34:00.413Z,13.38
2022-10-06T06:36:42.094Z,8.20
2022-10-06T06:39:16.776Z,13.93
2022-10-06T06:41:52.026Z,10.10
2022-10-06T06:44:41.827Z,8.63
2022-10-06T06:47:36.084Z,12.15
2022-10-06T06:50:16.452Z,12.00
2022-10-06T06:56:03.182Z,10.88
2022-10-06T06:58:33.600Z,16.95
2022-10-06T07:01:16.864Z,10.02
2022-10-06T07:03:58.624Z,12.88
2022-10-06T07:06:33.536Z,11.40
2022-10-06T07:09:07.188Z,13.90
2022-10-06T07:11:39.123Z,12.52
2022-10-06T07:14:13.103Z,13.52
2022-10-06T07:19:49.413Z,16.75
2022-10-06T07:22:39.568Z,15.80
2022-10-06T07:25:40.507Z,15.32
2022-10-06T07:28:12.615Z,20.38
2022-10-06T07:30:41.851Z,15.20
2022-10-06T07:33:19.580Z,18.17
2022-10-06T07:35:51.871Z,17.48
2022-10-06T07:38:27.804Z,14.52
2022-10-06T07:41:28.989Z,20.35
2022-10-06T07:43:50.559Z,17.85
2022-10-06T07:46:24.271Z,22.50
2022-10-06T07:48:58.161Z,18.98
2022-10-06T07:51:27.514Z,26.85
2022-10-06T07:53:59.705Z,24.30
2022-10-06T07:56:47.266Z,29.95
2022-10-06T07:59:14.611Z,29.67
2022-10-06T08:01:44.488Z,20.98
2022-10-06T08:04:13.192Z,19.67
2022-10-06T08:06:42.218Z,20.60
2022-10-06T08:09:09.739Z,17.52
2022-10-06T08:11:37.591Z,24.15
2022-10-06T08:14:04.903Z,20.50
2022-10-06T08:16:32.462Z,22.50
2022-10-06T08:19:01.181Z,23.88
2022-10-06T08:21:36.930Z,10.35
2022-10-06T08:24:04.261Z,12.68
2022-10-06T08:26:33.484Z,11.30
2022-10-06T08:29:03.839Z,19.23
2022-10-06T08:31:32.893Z,10.35
2022-10-06T08:34:01.601Z,19.05
2022-10-06T08:36:31.836Z,8.82
2022-10-06T08:39:00.907Z,11.50
2022-10-06T08:41:48.861Z,52.17
2022-10-06T08:44:19.513Z,14.82
2022-10-06T08:47:03.032Z,22.00
2022-10-06T08:49:49.806Z,25.13
2022-10-06T08:52:35.937Z,12.15
2022-10-06T08:55:42.482Z,13.27
2022-10-06T08:58:32.375Z,12.52
2022-10-06T09:01:14.708Z,12.52
2022-10-06T09:03:48.903Z,14.65
2022-10-06T09:06:28.007Z,12.63
2022-10-06T09:09:04.683Z,8.15
2022-10-06T09:11:45.724Z,16.25
2022-10-06T09:14:33.576Z,7.75
2022-10-06T09:17:06.268Z,13.88
2022-10-06T09:19:58.809Z,16.00
2022-10-06T09:22:33.090Z,8.25
2022-10-06T09:25:15.740Z,12.70
2022-10-06T09:27:51.466Z,11.75
2022-10-06T09:30:19.574Z,9.85
2022-10-06T09:36:11.176Z,11.88
2022-10-06T09:38:57.510Z,21.00
2022-10-06T09:41:42.023Z,11.63
2022-10-06T09:44:52.380Z,16.92
2022-10-06T09:47:46.661Z,17.88
2022-10-06T09:50:17.065Z,8.23
2022-10-06T09:53:25.833Z,9.93
2022-10-06T09:56:00.010Z,13.10
2022-10-06T09:58:40.845Z,22.73
2022-10-06T10:01:17.817Z,6.93
2022-10-06T10:04:19.375Z,7.30
2022-10-06T10:06:53.560Z,6.28
2022-10-06T10:09:31.563Z,5.40
2022-10-06T10:12:30.533Z,13.40
2022-10-06T10:15:04.815Z,14.45
2022-10-06T10:17:43.611Z,9.10
2022-10-06T10:20:30.891Z,9.82
2022-10-06T10:23:05.747Z,9.38
2022-10-06T10:26:15.085Z,12.68
2022-10-06T10:29:04.519Z,15.20
2022-10-06T10:32:15.263Z,9.52
2022-10-06T10:35:17.033Z,19.75
2022-10-06T10:38:14.442Z,9.00
2022-10-06T10:40:54.092Z,5.88
2022-10-06T10:43:43.437Z,7.13
2022-10-06T10:46:30.716Z,6.00
2022-10-06T10:49:20.685Z,11.90
2022-10-06T10:52:09.558Z,7.65
2022-10-06T10:55:00.279Z,8.77
2022-10-06T10:57:41.278Z,9.60
2022-10-06T11:00:16.673Z,6.97
2022-10-06T11:02:44.823Z,7.20
2022-10-06T11:05:19.481Z,6.20
2022-10-06T11:08:17.649Z,11.13
2022-10-06T11:10:57.148Z,11.88
2022-10-06T11:13:42.749Z,13.70
2022-10-06T11:16:50.419Z,16.60
2022-10-06T11:19:56.637Z,20.63
2022-10-06T11:22:39.911Z,12.18
2022-10-06T11:25:21.056Z,21.45
2022-10-06T11:28:15.566Z,13.32
2022-10-06T11:30:55.091Z,10.10
2022-10-06T11:33:50.196Z,13.00
2022-10-06T11:36:46.222Z,15.90
2022-10-06T11:39:23.664Z,14.02
2022-10-06T11:42:35.655Z,12.73
2022-10-06T11:45:12.402Z,14.35
2022-10-06T11:48:11.220Z,19.70
2022-10-06T11:50:44.776Z,17.60
2022-10-06T11:53:37.328Z,13.90
2022-10-06T11:56:19.947Z,15.75
2022-10-06T11:58:56.204Z,15.77
2022-10-06T12:01:33.902Z,8.85
2022-10-06T12:04:10.462Z,16.30
2022-10-06T12:07:04.794Z,11.20
2022-10-06T12:09:51.003Z,12.23
2022-10-06T12:12:19.444Z,15.63
2022-10-06T12:18:05.077Z,10.73
2022-10-06T12:20:52.360Z,17.80
2022-10-06T12:23:42.905Z,7.00
2022-10-06T12:26:28.952Z,13.00
2022-10-06T12:29:16.450Z,12.00
2022-10-06T12:31:55.486Z,9.20
2022-10-06T12:34:50.209Z,11.90
2022-10-06T12:37:33.540Z,8.35
2022-10-06T12:40:38.289Z,13.80
2022-10-06T12:43:23.822Z,8.82
2022-10-06T12:46:19.788Z,10.35
2022-10-06T12:49:08.046Z,9.27
2022-10-06T12:51:39.303Z,9.38
2022-10-06T12:54:19.761Z,12.38
2022-10-06T12:57:01.593Z,10.07
2022-10-06T12:59:35.963Z,10.00
2022-10-06T13:02:20.569Z,7.32
2022-10-06T13:05:15.380Z,8.18
2022-10-06T13:07:59.424Z,10.50
2022-10-06T13:10:30.560Z,11.35
2022-10-06T13:13:00.607Z,8.93
2022-10-06T13:15:41.710Z,9.43
2022-10-06T13:18:18.582Z,12.75
2022-10-06T13:21:00.742Z,16.55
2022-10-06T13:23:29.860Z,10.10
2022-10-06T13:26:02.803Z,15.15
2022-10-06T13:31:29.792Z,9.55
2022-10-06T13:34:11.311Z,13.95
2022-10-06T13:36:41.931Z,6.75
2022-10-06T13:39:16.047Z,7.43
2022-10-06T13:42:00.696Z,7.30
2022-10-06T13:44:41.876Z,8.13
2022-10-06T13:47:17.846Z,12.55
2022-10-06T13:50:04.369Z,9.23
2022-10-06T13:52:48.345Z,11.02
2022-10-06T13:55:21.385Z,9.88
2022-10-06T14:00:24.683Z,11.45
2022-10-06T14:02:54.586Z,13.52
2022-10-06T14:05:32.385Z,12.50
2022-10-06T14:08:12.239Z,11.18
2022-10-06T14:10:59.917Z,9.55
2022-10-06T14:13:49.849Z,12.13
2022-10-06T14:16:26.432Z,5.03
2022-10-06T14:19:01.469Z,4.32
2022-10-06T14:21:45.211Z,7.63
2022-10-06T14:24:19.841Z,10.07
2022-10-06T14:26:51.413Z,10.40
2022-10-06T14:29:21.078Z,6.38
2022-10-06T14:31:49.688Z,12.40
2022-10-06T14:34:20.878Z,7.85
2022-10-06T14:36:54.186Z,13.30
2022-10-06T14:39:22.654Z,7.95
2022-10-06T14:41:50.124Z,10.98
2022-10-06T14:44:19.472Z,8.05
2022-10-06T14:46:51.278Z,15.98
2022-10-06T14:49:19.172Z,11.55
2022-10-06T14:51:48.613Z,8.23
2022-10-06T14:54:16.835Z,9.60
2022-10-06T14:56:44.402Z,7.70
2022-10-06T14:59:17.341Z,6.95
2022-10-06T15:01:46.175Z,13.07
2022-10-06T15:04:15.911Z,6.65
2022-10-06T15:07:02.326Z,6.70
2022-10-06T15:09:31.576Z,10.27
2022-10-06T15:12:03.213Z,7.20
2022-10-06T15:14:31.138Z,13.30
2022-10-06T15:17:00.494Z,11.98
2022-10-06T15:19:28.421Z,9.73
2022-10-06T15:23:06.594Z,10.32
2022-10-06T15:25:52.892Z,7.57
2022-10-06T15:28:38.783Z,13.70
2022-10-06T15:31:06.910Z,14.85
2022-10-06T15:33:37.657Z,12.82
2022-10-06T15:36:19.371Z,7.95
2022-10-06T15:38:47.649Z,9.88
2022-10-06T15:41:14.938Z,8.07
2022-10-06T15:43:59.634Z,15.30
2022-10-06T15:46:41.072Z,8.38
2022-10-06T15:49:24.888Z,5.72
2022-10-06T15:52:07.032Z,14.57
2022-10-06T15:54:38.513Z,7.55
2022-10-06T15:57:16.577Z,10.57
2022-10-06T15:59:46.504Z,14.90
2022-10-06T16:02:18.644Z,14.32
2022-10-06T16:05:15.260Z,14.55
2022-10-06T16:07:50.109Z,7.70
2022-10-06T16:10:21.527Z,8.50
2022-10-06T16:12:51.744Z,14.65
2022-10-06T16:15:19.234Z,11.23
2022-10-06T16:17:47.586Z,6.72
2022-10-06T16:20:20.744Z,6.82
2022-10-06T16:22:52.149Z,14.15
2022-10-06T16:25:19.765Z,5.50
2022-10-06T16:28:07.650Z,11.27
2022-10-06T16:30:44.671Z,8.38
2022-10-06T16:33:17.555Z,9.75
2022-10-06T16:36:00.911Z,9.70
2022-10-06T16:38:36.393Z,13.27
2022-10-06T16:41:05.988Z,6.35
2022-10-06T16:43:35.492Z,7.90
2022-10-06T16:46:24.242Z,8.55
2022-10-06T16:48:55.276Z,12.65
2022-10-06T16:51:37.827Z,10.13
2022-10-06T16:54:08.136Z,6.50
2022-10-06T16:56:37.300Z,14.20
2022-10-06T16:59:08.018Z,10.93
2022-10-06T17:01:37.578Z,15.45
2022-10-06T17:04:07.876Z,6.15
2022-10-06T17:06:40.038Z,6.50
2022-10-06T17:09:09.168Z,6.63
2022-10-06T17:11:36.612Z,7.95
2022-10-06T17:14:05.468Z,14.38
2022-10-06T17:16:36.222Z,10.98
2022-10-06T17:19:04.463Z,11.57
2022-10-06T17:21:45.752Z,17.73
2022-10-06T17:24:15.251Z,9.45
2022-10-06T17:26:44.403Z,8.10
2022-10-06T17:29:20.608Z,11.55
2022-10-06T17:31:51.220Z,9.63
2022-10-06T17:34:26.495Z,9.75
2022-10-06T17:37:02.756Z,13.32
2022-10-06T17:39:30.879Z,10.45
2022-10-06T17:41:58.099Z,9.68
2022-10-06T17:44:29.473Z,7.07
2022-10-06T17:47:01.975Z,9.98
2022-10-06T17:49:35.826Z,6.63
2022-10-06T17:52:03.049Z,7.15
2022-10-06T17:54:32.896Z,12.02
2022-10-06T17:57:00.759Z,6.93
2022-10-06T17:59:32.319Z,9.63
2022-10-06T18:02:02.967Z,6.18
2022-10-06T18:04:31.968Z,7.65
2022-10-06T18:06:59.312Z,8.02
2022-10-06T18:09:26.854Z,11.70
2022-10-06T18:11:58.251Z,11.52
2022-10-06T18:14:32.637Z,8.32
2022-10-06T18:17:09.911Z,10.57
2022-10-06T18:19:39.526Z,13.30
2022-10-06T18:22:14.750Z,9.88
2022-10-06T18:24:42.321Z,11.60
2022-10-06T18:27:09.719Z,11.35
2022-10-06T18:29:42.781Z,5.57
2022-10-06T18:37:56.739Z,7.28
2022-10-06T18:40:25.669Z,12.40
2022-10-06T18:42:55.135Z,14.32
2022-10-06T18:45:49.591Z,16.85
2022-10-06T18:48:49.213Z,14.40
2022-10-06T18:51:36.283Z,8.70
2022-10-06T18:54:25.608Z,5.28
2022-10-06T18:57:03.169Z,13.70
2022-10-06T18:59:32.332Z,8.80
2022-10-06T19:02:01.024Z,15.75
2022-10-06T19:04:31.007Z,8.40
2022-10-06T19:07:02.399Z,11.70
2022-10-06T19:09:32.780Z,18.20
2022-10-06T19:12:02.992Z,9.77
2022-10-06T19:14:40.851Z,14.55
2022-10-06T19:17:16.097Z,10.20
2022-10-06T19:19:45.994Z,8.45
2022-10-06T19:22:20.669Z,16.52
2022-10-06T19:24:53.373Z,12.38
2022-10-06T19:27:33.222Z,11.63
2022-10-06T19:30:06.870Z,11.23
2022-10-06T19:32:42.272Z,8.75
2022-10-06T19:35:13.651Z,8.15
2022-10-06T19:37:45.947Z,9.70
2022-10-06T19:40:16.113Z,10.10
2022-10-06T19:42:48.225Z,5.18
2022-10-06T19:45:31.036Z,7.50
2022-10-06T19:48:03.540Z,5.33
2022-10-06T19:50:46.849Z,11.50
2022-10-06T19:53:23.166Z,5.63
2022-10-06T19:58:33.578Z,10.95
2022-10-06T20:01:07.638Z,6.07
2022-10-06T20:03:45.047Z,8.40
2022-10-06T20:06:21.755Z,11.50
2022-10-06T20:08:49.886Z,10.07
2022-10-06T20:11:22.501Z,8.88
2022-10-06T20:13:50.537Z,8.75
2022-10-06T20:16:21.076Z,10.23
2022-10-06T20:18:50.785Z,12.85
2022-10-06T20:21:22.761Z,6.65
2022-10-06T20:23:56.886Z,12.35
2022-10-06T20:26:29.606Z,7.35
2022-10-06T20:28:59.361Z,5.63
2022-10-06T20:31:29.478Z,11.88
2022-10-06T20:33:59.726Z,13.48
2022-10-06T20:36:31.942Z,7.47
2022-10-06T20:39:19.436Z,10.13
2022-10-06T20:41:46.824Z,16.83
2022-10-06T20:44:14.013Z,8.77
2022-10-06T20:46:45.085Z,8.57
2022-10-06T20:49:17.529Z,9.35
2022-10-06T20:51:50.216Z,14.90
2022-10-06T20:54:31.084Z,10.53
2022-10-06T20:56:58.226Z,4.38
2022-10-06T20:59:25.350Z,5.20
2022-10-06T21:01:52.843Z,8.35
2022-10-06T21:04:24.083Z,11.20
2022-10-06T21:06:52.008Z,7.63
2022-10-06T21:09:23.202Z,6.88
2022-10-06T21:11:53.993Z,6.13
2022-10-06T21:14:25.383Z,10.27
2022-10-06T21:17:00.226Z,9.60
2022-10-06T21:19:39.369Z,7.68
2022-10-06T21:22:06.833Z,3.60
2022-10-06T21:24:37.349Z,13.07
2022-10-06T21:27:11.352Z,10.98
2022-10-06T21:30:29.290Z,8.77
2022-10-06T21:33:19.480Z,8.88
2022-10-06T21:36:06.743Z,9.18
2022-10-06T21:41:34.585Z,14.18
2022-10-06T21:44:15.542Z,8.48
2022-10-06T21:49:50.971Z,8.13
2022-10-06T21:52:27.491Z,7.22
2022-10-06T21:55:06.931Z,17.13
2022-10-06T21:57:37.321Z,24.77
2022-10-06T22:00:11.378Z,50.42
2022-10-06T22:02:49.435Z,44.08
2022-10-06T22:05:25.888Z,37.97
2022-10-06T22:07:56.998Z,70.75
2022-10-06T22:10:29.905Z,47.47
2022-10-06T22:13:19.290Z,46.05
2022-10-06T22:16:04.257Z,47.45
2022-10-06T22:18:43.583Z,34.42
2022-10-06T22:21:28.252Z,25.52
2022-10-06T22:24:06.908Z,19.75
2022-10-06T22:26:42.558Z,18.90
2022-10-06T22:29:18.747Z,13.82
2022-10-06T22:32:04.983Z,13.70
2022-10-06T22:34:34.381Z,13.48
2022-10-06T22:37:11.267Z,11.02
2022-10-06T22:39:39.018Z,15.20
2022-10-06T22:42:06.772Z,11.70
2022-10-06T22:44:34.112Z,8.63
2022-10-06T22:47:04.950Z,11.45
2022-10-06T22:49:40.128Z,9.68
2022-10-06T22:52:07.974Z,10.70
2022-10-06T22:54:35.439Z,7.97
2022-10-06T22:57:07.182Z,15.43
2022-10-06T22:59:40.590Z,11.77
2022-10-06T23:02:11.113Z,9.60
2022-10-06T23:04:39.090Z,12.82
2022-10-06T23:07:07.766Z,13.27
2022-10-06T23:09:38.628Z,9.50
2022-10-06T23:12:06.056Z,8.00
2022-10-06T23:14:36.438Z,12.15
2022-10-06T23:17:04.251Z,14.15
2022-10-06T23:19:35.848Z,17.35
2022-10-06T23:22:03.461Z,9.82
2022-10-06T23:24:30.975Z,9.68
2022-10-06T23:27:04.732Z,6.95
2022-10-06T23:29:35.565Z,7.90
2022-10-06T23:32:05.416Z,11.02
2022-10-06T23:34:35.198Z,8.57
2022-10-06T23:37:02.572Z,9.23
2022-10-06T23:39:30.041Z,10.98
2022-10-06T23:41:58.017Z,8.23
2022-10-06T23:44:27.291Z,10.15
2022-10-06T23:46:54.623Z,9.82
2022-10-06T23:49:21.958Z,11.13
2022-10-06T23:51:49.500Z,4.75
2022-10-06T23:54:19.043Z,7.38
2022-10-06T23:56:51.631Z,10.45
